Portada
METAR-TAF:

METAR-TAF

Aeropuertos :

Takamatsu, Japón

latitud: 34-13N, longitud: 134-01E, altitud: 185 m

Observación

El informe se hizo hace 4 horas y 27 minutos, a las 12:00 UTC
Viento 4 kt del sur, variando entre sureste y suroeste
Temperatura 22°C
Humedad 83%
Presión 1008 hPa
Visibilidad 10 km o más
Escasas nubes a una altura de 2500 ft
Nubes dispersas a una altura de 4000 ft
Cielo nuboso

METAR: RJOT 061200Z 19004KT 140V220 9999 FEW025 SCT040 BKN/// 22/19 Q1008

Hora: 01:27 (16:27 UTC)

Pronóstico

El informe se hizo hace 5 horas y 19 minutos, a las 11:08 UTC
Pronóstico válido del 06 a las 12 UTC al 07 a las 18 UTC
Viento 6 kt del sur-sureste
Visibilidad 10 km o más
Escasas nubes a una altura de 2500 ft
Cielo nuboso a una altura de 4000 ft

TAF: RJOT 061108Z 0612/0718 15006KT 9999 FEW025 BKN040

Observaciones y pronósticos meteorológicos de más de 4000 aeropuertos (mensajes METAR y TAF).

Los puntos amarillos y rojos representan las estaciones disponibles.

Ponga el ratón en el punto deseado para ver el nombre de la estación.

Haga clic para ver las observaciones y los pronósticos meteorológicos.

Para cambiar el mapa : haga clic en los botones verdes con una cruz de color negro para hacer un zoom, en el botón verde con un guión para alejar o en las flechas verdes para mapas adyacentes.


METAR-TAF: